createdAt,value
2019-05-23T00:00:38.918Z,7.30
2019-05-23T00:01:35.870Z,7.28
2019-05-23T00:02:32.916Z,7.26
2019-05-23T00:03:29.941Z,7.23
2019-05-23T00:04:26.915Z,7.23
2019-05-23T00:05:23.914Z,7.21
2019-05-23T00:06:20.981Z,7.21
2019-05-23T00:07:17.910Z,7.19
2019-05-23T00:08:14.968Z,7.17
2019-05-23T00:09:11.958Z,7.15
2019-05-23T00:10:09.058Z,7.13
2019-05-23T00:11:05.955Z,7.13
2019-05-23T00:12:02.972Z,7.13
2019-05-23T00:13:00.024Z,7.09
2019-05-23T00:13:57.083Z,7.09
2019-05-23T00:14:54.023Z,7.11
2019-05-23T00:15:50.990Z,7.11
2019-05-23T00:16:48.056Z,7.09
2019-05-23T00:17:45.112Z,7.07
2019-05-23T00:18:42.028Z,7.07
2019-05-23T00:19:39.106Z,7.05
2019-05-23T00:20:36.103Z,7.07
2019-05-23T00:21:33.052Z,7.05
2019-05-23T00:22:30.076Z,7.05
2019-05-23T00:23:27.133Z,7.05
2019-05-23T00:24:24.156Z,7.05
2019-05-23T00:25:21.096Z,7.05
2019-05-23T00:26:18.132Z,7.03
2019-05-23T00:27:15.099Z,7.01
2019-05-23T00:28:12.234Z,7.00
2019-05-23T00:29:10.636Z,7.00
2019-05-23T00:30:06.171Z,7.00
2019-05-23T00:31:03.209Z,7.00
2019-05-23T00:32:00.245Z,6.98
2019-05-23T00:32:57.190Z,6.98
2019-05-23T00:33:54.223Z,6.96
2019-05-23T00:34:51.254Z,6.96
2019-05-23T00:35:48.204Z,6.96
2019-05-23T00:36:45.228Z,6.96
2019-05-23T00:37:42.290Z,6.96
2019-05-23T00:38:39.323Z,6.96
2019-05-23T00:39:36.229Z,6.92
2019-05-23T00:40:33.314Z,6.90
2019-05-23T00:41:30.326Z,6.90
2019-05-23T00:42:27.397Z,6.88
2019-05-23T00:43:24.376Z,6.88
2019-05-23T00:44:21.326Z,6.86
2019-05-23T00:45:18.359Z,6.86
2019-05-23T00:46:15.396Z,6.84
2019-05-23T00:47:12.346Z,6.82
2019-05-23T00:48:09.387Z,6.82
2019-05-23T00:49:06.421Z,6.82
2019-05-23T00:50:03.344Z,6.82
2019-05-23T00:51:04.447Z,6.80
2019-05-23T00:51:57.416Z,6.80
2019-05-23T00:52:54.470Z,6.79
2019-05-23T00:53:51.411Z,6.80
2019-05-23T00:54:48.427Z,6.79
2019-05-23T00:55:45.464Z,6.78
2019-05-23T00:56:42.518Z,6.77
2019-05-23T00:57:39.451Z,6.73
2019-05-23T00:58:36.498Z,6.71
2019-05-23T00:59:33.510Z,6.69
2019-05-23T01:00:30.454Z,6.67
2019-05-23T01:01:27.484Z,6.69
2019-05-23T01:02:24.535Z,6.67
2019-05-23T01:03:21.559Z,6.69
2019-05-23T01:04:18.585Z,6.69
2019-05-23T01:05:15.623Z,6.67
2019-05-23T01:06:12.569Z,6.67
2019-05-23T01:07:09.681Z,6.67
2019-05-23T01:08:06.541Z,6.67
2019-05-23T01:09:03.597Z,6.65
2019-05-23T01:10:00.619Z,6.63
2019-05-23T01:10:57.559Z,6.61
2019-05-23T01:11:54.589Z,6.59
2019-05-23T01:12:51.626Z,6.59
2019-05-23T01:13:48.687Z,6.59
2019-05-23T01:14:45.599Z,6.59
2019-05-23T01:15:42.677Z,6.57
2019-05-23T01:16:39.681Z,6.57
2019-05-23T01:17:36.725Z,6.55
2019-05-23T01:18:33.750Z,6.53
2019-05-23T01:19:30.706Z,6.53
2019-05-23T01:20:27.725Z,6.52
2019-05-23T01:21:24.760Z,6.53
2019-05-23T01:22:21.798Z,6.53
2019-05-23T01:23:18.774Z,6.53
2019-05-23T01:24:15.791Z,6.52
2019-05-23T01:25:12.704Z,6.53
2019-05-23T01:26:09.709Z,6.51
2019-05-23T01:27:06.778Z,6.51
2019-05-23T01:28:03.843Z,6.51
2019-05-23T01:29:00.754Z,6.51
2019-05-23T01:29:57.806Z,6.51
2019-05-23T01:30:54.826Z,6.52
2019-05-23T01:31:51.863Z,6.53
2019-05-23T01:32:48.798Z,6.50
2019-05-23T01:33:45.852Z,6.52
2019-05-23T01:34:42.880Z,6.52
2019-05-23T01:35:39.823Z,6.53
2019-05-23T01:36:36.887Z,6.53
2019-05-23T01:37:33.884Z,6.50
2019-05-23T01:38:30.843Z,6.48
2019-05-23T01:39:27.859Z,6.44
2019-05-23T01:40:24.907Z,6.42
2019-05-23T01:41:21.931Z,6.42
2019-05-23T01:42:18.969Z,6.42
2019-05-23T01:43:15.906Z,6.42
2019-05-23T01:44:12.956Z,6.42
2019-05-23T01:45:10.000Z,6.42
2019-05-23T01:46:07.022Z,6.42
2019-05-23T01:47:03.951Z,6.42
2019-05-23T01:48:00.998Z,6.42
2019-05-23T01:48:58.089Z,6.42
2019-05-23T01:49:54.968Z,6.40
2019-05-23T01:50:52.028Z,6.40
2019-05-23T01:51:49.040Z,6.38
2019-05-23T01:52:46.075Z,6.38
2019-05-23T01:53:43.012Z,6.36
2019-05-23T01:54:40.068Z,6.34
2019-05-23T01:55:37.105Z,6.32
2019-05-23T01:56:34.122Z,6.32
2019-05-23T01:57:31.060Z,6.30
2019-05-23T01:58:28.093Z,6.28
2019-05-23T01:59:25.170Z,6.26
2019-05-23T02:00:22.081Z,6.26
2019-05-23T02:01:19.096Z,6.25
2019-05-23T02:02:16.145Z,6.25
2019-05-23T02:03:13.179Z,6.26
2019-05-23T02:04:10.130Z,6.23
2019-05-23T02:05:07.151Z,6.23
2019-05-23T02:06:04.211Z,6.25
2019-05-23T02:07:01.226Z,6.25
2019-05-23T02:07:58.153Z,6.25
2019-05-23T02:08:55.203Z,6.23
2019-05-23T02:09:52.258Z,6.21
2019-05-23T02:10:49.197Z,6.21
2019-05-23T02:11:46.210Z,6.21
2019-05-23T02:12:43.249Z,6.19
2019-05-23T02:13:40.303Z,6.19
2019-05-23T02:14:37.227Z,6.15
2019-05-23T02:15:34.373Z,6.15
2019-05-23T02:16:31.295Z,6.13
2019-05-23T02:17:28.335Z,6.11
2019-05-23T02:18:25.266Z,6.11
2019-05-23T02:19:22.306Z,6.09
2019-05-23T02:20:19.287Z,6.09
2019-05-23T02:21:16.402Z,6.13
2019-05-23T02:22:13.376Z,6.11
2019-05-23T02:23:10.354Z,6.11
2019-05-23T02:24:07.390Z,6.11
2019-05-23T02:25:04.615Z,6.09
2019-05-23T02:26:01.384Z,6.07
2019-05-23T02:26:58.398Z,6.03
2019-05-23T02:27:55.440Z,6.01
2019-05-23T02:28:52.411Z,6.01
2019-05-23T02:29:49.407Z,6.00
2019-05-23T02:30:46.456Z,5.98
2019-05-23T02:31:43.501Z,5.98
2019-05-23T02:32:40.461Z,6.01
2019-05-23T02:33:37.458Z,6.01
2019-05-23T02:34:34.521Z,6.01
2019-05-23T02:35:31.546Z,6.01
2019-05-23T02:36:28.491Z,6.00
2019-05-23T02:37:25.504Z,6.01
2019-05-23T02:38:22.541Z,6.01
2019-05-23T02:39:19.486Z,6.00
2019-05-23T02:40:16.515Z,6.00
2019-05-23T02:41:13.566Z,5.98
2019-05-23T02:42:10.589Z,5.98
2019-05-23T02:43:07.525Z,5.94
2019-05-23T02:44:04.569Z,5.92
2019-05-23T02:45:01.602Z,5.90
2019-05-23T02:45:58.668Z,5.90
2019-05-23T02:46:55.585Z,5.90
2019-05-23T02:47:52.609Z,5.90
2019-05-23T02:48:49.663Z,5.92
2019-05-23T02:49:46.612Z,5.90
2019-05-23T02:50:43.621Z,5.88
2019-05-23T02:51:40.665Z,5.86
2019-05-23T02:52:37.699Z,5.82
2019-05-23T02:53:34.639Z,5.82
2019-05-23T02:54:31.675Z,5.79
2019-05-23T02:55:28.728Z,5.80
2019-05-23T02:56:25.665Z,5.78
2019-05-23T02:57:22.707Z,5.77
2019-05-23T02:58:19.705Z,5.76
2019-05-23T02:59:16.795Z,5.76
2019-05-23T03:00:13.830Z,5.75
2019-05-23T03:01:10.740Z,5.75
2019-05-23T03:02:07.788Z,5.77
2019-05-23T03:03:04.808Z,5.77
2019-05-23T03:04:01.740Z,5.78
2019-05-23T03:04:58.791Z,5.79
2019-05-23T03:05:55.810Z,5.77
2019-05-23T03:06:52.849Z,5.78
2019-05-23T03:07:49.807Z,5.77
2019-05-23T03:08:46.820Z,5.76
2019-05-23T03:09:43.861Z,5.73
2019-05-23T03:10:40.895Z,5.75
2019-05-23T03:11:37.851Z,5.76
2019-05-23T03:12:34.885Z,5.76
2019-05-23T03:13:31.949Z,5.75
2019-05-23T03:14:28.942Z,5.76
2019-05-23T03:15:25.893Z,5.75
2019-05-23T03:16:22.914Z,5.77
2019-05-23T03:17:19.990Z,5.80
2019-05-23T03:18:16.929Z,5.82
2019-05-23T03:19:13.932Z,5.82
2019-05-23T03:20:10.964Z,5.82
2019-05-23T03:21:07.921Z,5.82
2019-05-23T03:22:04.949Z,5.78
2019-05-23T03:23:02.004Z,5.75
2019-05-23T03:23:59.011Z,5.76
2019-05-23T03:24:56.048Z,5.73
2019-05-23T03:25:52.996Z,5.73
2019-05-23T03:26:50.019Z,5.75
2019-05-23T03:27:47.070Z,5.76
2019-05-23T03:28:44.113Z,5.77
2019-05-23T03:29:41.038Z,5.77
2019-05-23T03:30:38.070Z,5.82
2019-05-23T03:31:35.125Z,5.82
2019-05-23T03:32:38.044Z,5.82
2019-05-23T03:33:29.082Z,5.84
2019-05-23T03:34:26.115Z,5.84
2019-05-23T03:35:23.154Z,5.86
2019-05-23T03:36:20.089Z,5.88
2019-05-23T03:37:17.130Z,5.88
2019-05-23T03:38:14.184Z,5.90
2019-05-23T03:39:11.202Z,5.90
2019-05-23T03:40:08.139Z,5.92
2019-05-23T03:41:05.192Z,5.92
2019-05-23T03:42:02.209Z,5.92
2019-05-23T03:42:59.177Z,5.92
2019-05-23T03:43:56.182Z,5.94
2019-05-23T03:44:53.166Z,5.96
2019-05-23T03:45:50.261Z,6.00
2019-05-23T03:46:47.213Z,6.00
2019-05-23T03:47:44.251Z,6.03
2019-05-23T03:48:41.274Z,6.03
2019-05-23T03:49:38.305Z,6.03
2019-05-23T03:50:35.240Z,6.03
2019-05-23T03:51:32.302Z,6.07
2019-05-23T03:52:29.314Z,6.09
2019-05-23T03:53:26.343Z,6.11
2019-05-23T03:54:23.291Z,6.13
2019-05-23T03:55:20.365Z,6.15
2019-05-23T03:56:17.363Z,6.15
2019-05-23T03:57:14.315Z,6.15
2019-05-23T03:58:11.363Z,6.19
2019-05-23T03:59:08.373Z,6.19
2019-05-23T04:00:05.449Z,6.21
2019-05-23T04:01:02.385Z,6.23
2019-05-23T04:01:59.396Z,6.23
2019-05-23T04:02:56.419Z,6.26
2019-05-23T04:03:53.479Z,6.26
2019-05-23T04:04:50.391Z,6.28
2019-05-23T04:05:47.432Z,6.32
2019-05-23T04:06:44.473Z,6.34
2019-05-23T04:07:41.434Z,6.38
2019-05-23T04:08:38.457Z,6.40
2019-05-23T04:09:35.509Z,6.42
2019-05-23T04:10:32.514Z,6.46
2019-05-23T04:11:29.454Z,6.48
2019-05-23T04:12:26.497Z,6.52
2019-05-23T04:13:23.542Z,6.55
2019-05-23T04:14:20.607Z,6.59
2019-05-23T04:15:17.558Z,6.59
2019-05-23T04:16:14.576Z,6.61
2019-05-23T04:17:11.606Z,6.65
2019-05-23T04:18:08.609Z,6.67
2019-05-23T04:19:05.559Z,6.69
2019-05-23T04:20:02.586Z,6.73
2019-05-23T04:20:59.621Z,6.77
2019-05-23T04:21:56.562Z,6.78
2019-05-23T04:22:53.625Z,6.82
2019-05-23T04:23:50.659Z,6.84
2019-05-23T04:24:47.672Z,6.88
2019-05-23T04:25:44.642Z,6.90
2019-05-23T04:26:41.662Z,6.94
2019-05-23T04:27:38.760Z,6.96
2019-05-23T04:28:35.771Z,7.01
2019-05-23T04:29:32.720Z,7.03
2019-05-23T04:30:29.705Z,7.07
2019-05-23T04:31:26.724Z,7.09
2019-05-23T04:32:23.666Z,7.15
2019-05-23T04:33:20.716Z,7.19
2019-05-23T04:34:17.753Z,7.23
2019-05-23T04:35:14.775Z,7.28
2019-05-23T04:36:11.714Z,7.32
2019-05-23T04:37:08.744Z,7.36
2019-05-23T04:38:05.798Z,7.40
2019-05-23T04:39:02.834Z,7.46
2019-05-23T04:39:59.755Z,7.52
2019-05-23T04:40:56.868Z,7.55
2019-05-23T04:41:53.830Z,7.59
2019-05-23T04:42:50.787Z,7.63
2019-05-23T04:43:47.834Z,7.67
2019-05-23T04:44:44.967Z,7.73
2019-05-23T04:45:41.899Z,7.77
2019-05-23T04:46:38.813Z,7.82
2019-05-23T04:47:35.877Z,7.86
2019-05-23T04:48:32.891Z,7.90
2019-05-23T04:49:30.016Z,7.94
2019-05-23T04:50:26.867Z,8.00
2019-05-23T04:51:23.933Z,8.05
2019-05-23T04:52:20.947Z,8.10
2019-05-23T04:53:17.883Z,8.15
2019-05-23T04:54:14.925Z,8.21
2019-05-23T04:55:11.960Z,8.26
2019-05-23T04:56:09.071Z,8.30
2019-05-23T04:57:05.916Z,8.36
2019-05-23T04:58:04.677Z,8.40
2019-05-23T04:59:00.017Z,8.47
2019-05-23T04:59:57.032Z,8.53
2019-05-23T05:00:53.965Z,8.61
2019-05-23T05:01:51.026Z,8.65
2019-05-23T05:02:48.041Z,8.72
2019-05-23T05:03:45.002Z,8.77
2019-05-23T05:04:42.112Z,8.81
2019-05-23T05:05:39.063Z,8.89
2019-05-23T05:06:36.093Z,8.94
2019-05-23T05:07:33.044Z,9.02
2019-05-23T05:08:30.088Z,9.06
2019-05-23T05:09:27.133Z,9.10
2019-05-23T05:10:24.137Z,9.13
2019-05-23T05:11:21.074Z,9.14
2019-05-23T05:12:18.119Z,9.15
2019-05-23T05:13:15.187Z,9.18
2019-05-23T05:14:12.187Z,9.22
2019-05-23T05:15:09.140Z,9.22
2019-05-23T05:16:06.208Z,9.25
2019-05-23T05:17:03.195Z,9.26
2019-05-23T05:18:00.140Z,9.25
2019-05-23T05:18:57.195Z,9.26
2019-05-23T05:19:54.217Z,9.22
2019-05-23T05:20:51.241Z,9.27
2019-05-23T05:21:48.206Z,9.28
2019-05-23T05:22:45.212Z,9.28
2019-05-23T05:23:42.292Z,9.31
2019-05-23T05:24:40.280Z,9.35
2019-05-23T05:25:36.222Z,9.38
2019-05-23T05:26:33.224Z,9.42
2019-05-23T05:27:30.350Z,9.46
2019-05-23T05:28:27.344Z,9.47
2019-05-23T05:29:24.371Z,9.50
2019-05-23T05:30:21.322Z,9.52
2019-05-23T05:31:18.355Z,9.53
2019-05-23T05:32:15.293Z,9.56
2019-05-23T05:33:12.320Z,9.55
2019-05-23T05:34:09.377Z,9.53
2019-05-23T05:35:06.417Z,9.52
2019-05-23T05:36:03.595Z,9.56
2019-05-23T05:37:00.389Z,9.57
2019-05-23T05:37:57.442Z,9.61
2019-05-23T05:38:54.443Z,9.68
2019-05-23T05:39:51.398Z,9.69
2019-05-23T05:40:48.418Z,9.68
2019-05-23T05:41:45.453Z,9.68
2019-05-23T05:42:42.488Z,9.68
2019-05-23T05:43:39.511Z,9.72
2019-05-23T05:44:36.510Z,9.79
2019-05-23T05:45:33.675Z,9.86
2019-05-23T05:46:30.464Z,9.92
2019-05-23T05:47:27.478Z,9.96
2019-05-23T05:48:24.558Z,9.97
2019-05-23T05:49:21.614Z,9.97
2019-05-23T05:50:18.501Z,10.02
2019-05-23T05:51:15.528Z,10.07
2019-05-23T05:52:12.705Z,10.11
2019-05-23T05:53:09.663Z,10.18
2019-05-23T05:54:06.588Z,10.28
2019-05-23T05:55:03.613Z,10.31
2019-05-23T05:56:00.636Z,10.38
2019-05-23T05:56:57.553Z,10.46
2019-05-23T05:57:54.583Z,10.51
2019-05-23T05:58:51.617Z,10.56
2019-05-23T05:59:48.750Z,10.61
2019-05-23T06:00:45.677Z,10.69
2019-05-23T06:01:42.662Z,10.77
2019-05-23T06:02:39.665Z,10.80
2019-05-23T06:03:36.737Z,10.73
2019-05-23T06:04:33.671Z,10.68
2019-05-23T06:05:30.701Z,10.68
2019-05-23T06:06:27.730Z,10.77
2019-05-23T06:07:24.746Z,10.85
2019-05-23T06:08:21.682Z,10.89
2019-05-23T06:09:18.833Z,10.88
2019-05-23T06:10:15.778Z,10.85
2019-05-23T06:11:12.717Z,10.88
2019-05-23T06:12:09.728Z,10.89
2019-05-23T06:13:06.807Z,10.89
2019-05-23T06:14:03.832Z,10.89
2019-05-23T06:15:00.737Z,10.92
2019-05-23T06:15:57.803Z,10.97
2019-05-23T06:16:54.823Z,11.00
2019-05-23T06:17:51.874Z,11.01
2019-05-23T06:18:48.786Z,11.06
2019-05-23T06:19:45.845Z,11.10
2019-05-23T06:20:42.860Z,11.18
2019-05-23T06:21:39.818Z,11.22
2019-05-23T06:22:36.845Z,11.19
2019-05-23T06:23:33.869Z,11.13
2019-05-23T06:24:45.466Z,11.15
2019-05-23T06:25:27.849Z,11.23
2019-05-23T06:26:24.901Z,11.31
2019-05-23T06:27:21.924Z,11.43
2019-05-23T06:28:18.960Z,11.51
2019-05-23T06:29:15.932Z,11.50
2019-05-23T06:30:12.942Z,11.47
2019-05-23T06:31:10.008Z,11.43
2019-05-23T06:32:06.914Z,11.42
2019-05-23T06:33:19.939Z,11.39
2019-05-23T06:34:00.983Z,11.43
2019-05-23T06:34:58.068Z,11.42
2019-05-23T06:35:54.977Z,11.47
2019-05-23T06:36:52.088Z,11.55
2019-05-23T06:37:49.022Z,11.64
2019-05-23T06:38:46.063Z,11.72
2019-05-23T06:39:43.017Z,11.75
2019-05-23T06:40:40.081Z,11.82
2019-05-23T06:41:37.825Z,11.88
2019-05-23T06:42:34.235Z,11.93
2019-05-23T06:43:31.150Z,12.00
2019-05-23T06:44:28.080Z,12.06
2019-05-23T06:45:25.199Z,12.13
2019-05-23T06:46:22.241Z,12.23
2019-05-23T06:47:19.110Z,12.31
2019-05-23T06:48:16.175Z,12.22
2019-05-23T06:49:13.182Z,12.18
2019-05-23T06:50:10.100Z,12.27
2019-05-23T06:51:07.153Z,12.34
2019-05-23T06:52:05.213Z,12.35
2019-05-23T06:53:01.389Z,12.47
2019-05-23T06:53:58.250Z,12.56
2019-05-23T06:54:59.085Z,12.71
2019-05-23T06:55:52.254Z,12.81
2019-05-23T06:56:49.171Z,12.93
2019-05-23T06:57:46.205Z,12.98
2019-05-23T06:58:43.237Z,13.00
2019-05-23T06:59:40.270Z,13.11
2019-05-23T07:00:37.230Z,13.27
2019-05-23T07:01:34.242Z,13.36
2019-05-23T07:02:32.271Z,13.39
2019-05-23T07:03:41.480Z,13.35
2019-05-23T07:04:25.253Z,13.35
2019-05-23T07:05:22.290Z,13.51
2019-05-23T07:06:19.372Z,13.72
2019-05-23T07:07:16.361Z,13.89
2019-05-23T07:08:13.512Z,14.22
2019-05-23T07:09:10.345Z,14.43
2019-05-23T07:10:07.377Z,14.38
2019-05-23T07:11:04.311Z,14.30
2019-05-23T07:12:01.471Z,14.46
2019-05-23T07:12:58.430Z,14.59
2019-05-23T07:13:55.340Z,14.77
2019-05-23T07:14:52.367Z,14.81
2019-05-23T07:15:49.417Z,14.64
2019-05-23T07:16:50.091Z,14.60
2019-05-23T07:17:43.392Z,14.50
2019-05-23T07:18:40.422Z,14.46
2019-05-23T07:19:37.482Z,14.43
2019-05-23T07:20:34.534Z,14.36
2019-05-23T07:21:31.621Z,14.27
2019-05-23T07:22:28.411Z,14.34
2019-05-23T07:23:25.502Z,14.50
2019-05-23T07:24:22.457Z,14.60
2019-05-23T07:25:19.475Z,14.76
2019-05-23T07:26:16.504Z,14.80
2019-05-23T07:27:13.565Z,14.79
2019-05-23T07:28:10.479Z,14.88
2019-05-23T07:29:07.516Z,15.06
2019-05-23T07:30:04.550Z,15.15
2019-05-23T07:31:01.513Z,15.15
2019-05-23T07:31:58.534Z,15.26
2019-05-23T07:32:55.580Z,15.31
2019-05-23T07:34:01.585Z,15.31
2019-05-23T07:34:49.542Z,15.31
2019-05-23T07:35:46.663Z,15.27
2019-05-23T07:36:43.730Z,15.35
2019-05-23T07:37:40.675Z,15.43
2019-05-23T07:38:37.584Z,15.38
2019-05-23T07:39:34.622Z,15.46
2019-05-23T07:40:31.663Z,15.47
2019-05-23T07:41:28.703Z,15.39
2019-05-23T07:42:25.665Z,15.43
2019-05-23T07:43:22.776Z,15.53
2019-05-23T07:44:19.722Z,15.64
2019-05-23T07:45:16.660Z,15.64
2019-05-23T07:46:13.702Z,15.81
2019-05-23T07:47:10.746Z,15.82
2019-05-23T07:48:07.772Z,15.92
2019-05-23T07:49:04.688Z,16.07
2019-05-23T07:50:01.868Z,16.04
2019-05-23T07:50:58.772Z,15.93
2019-05-23T07:51:55.839Z,16.05
2019-05-23T07:52:52.773Z,16.23
2019-05-23T07:53:50.171Z,16.38
2019-05-23T07:54:46.830Z,16.50
2019-05-23T07:55:43.849Z,16.44
2019-05-23T07:56:40.782Z,16.55
2019-05-23T07:57:37.910Z,16.34
2019-05-23T07:58:34.860Z,16.20
2019-05-23T07:59:31.828Z,16.31
2019-05-23T08:00:28.885Z,16.50
2019-05-23T08:01:25.908Z,16.68
2019-05-23T08:02:25.668Z,16.79
2019-05-23T08:03:19.938Z,16.76
2019-05-23T08:04:21.776Z,16.79
2019-05-23T08:05:13.957Z,16.86
2019-05-23T08:06:10.954Z,16.87
2019-05-23T08:07:07.977Z,16.95
2019-05-23T08:08:05.027Z,17.25
2019-05-23T08:09:02.059Z,17.19
2019-05-23T08:09:59.038Z,17.25
2019-05-23T08:10:55.975Z,17.20
2019-05-23T08:11:53.061Z,17.31
2019-05-23T08:12:50.019Z,17.53
2019-05-23T08:13:47.048Z,17.48
2019-05-23T08:14:44.023Z,17.56
2019-05-23T08:15:41.059Z,17.70
2019-05-23T08:16:38.076Z,17.75
2019-05-23T08:17:35.105Z,17.76
2019-05-23T08:18:32.147Z,17.64
2019-05-23T08:19:29.120Z,17.51
2019-05-23T08:20:26.206Z,17.42
2019-05-23T08:21:23.065Z,17.53
2019-05-23T08:22:20.110Z,17.70
2019-05-23T08:23:17.211Z,17.70
2019-05-23T08:24:14.140Z,17.87
2019-05-23T08:25:11.121Z,17.98
2019-05-23T08:26:08.176Z,17.93
2019-05-23T08:27:05.261Z,17.98
2019-05-23T08:28:02.224Z,17.96
2019-05-23T08:29:24.204Z,17.96
2019-05-23T08:29:56.112Z,18.07
2019-05-23T08:30:53.319Z,18.30
2019-05-23T08:31:50.188Z,18.37
2019-05-23T08:32:47.202Z,18.31
2019-05-23T08:33:44.263Z,18.45
2019-05-23T08:34:42.909Z,18.62
2019-05-23T08:35:38.233Z,18.62
2019-05-23T08:36:35.204Z,18.70
2019-05-23T08:37:32.260Z,18.73
2019-05-23T08:38:29.219Z,18.94
2019-05-23T08:39:26.256Z,18.96
2019-05-23T08:40:23.387Z,18.98
2019-05-23T08:41:20.358Z,19.07
2019-05-23T08:42:17.395Z,19.04
2019-05-23T08:43:14.607Z,19.01
2019-05-23T08:44:11.730Z,19.04
2019-05-23T08:45:08.407Z,19.01
2019-05-23T08:46:05.299Z,19.14
2019-05-23T08:47:02.419Z,19.20
2019-05-23T08:47:59.413Z,19.04
2019-05-23T08:48:56.503Z,19.07
2019-05-23T08:49:53.443Z,19.17
2019-05-23T08:50:51.502Z,19.32
2019-05-23T08:51:47.468Z,19.70
2019-05-23T08:52:44.477Z,20.04
2019-05-23T08:53:41.502Z,20.15
2019-05-23T08:54:38.527Z,20.12
2019-05-23T08:55:35.475Z,20.13
2019-05-23T08:56:32.576Z,20.32
2019-05-23T08:57:29.590Z,20.35
2019-05-23T08:58:26.481Z,20.26
2019-05-23T08:59:23.577Z,20.00
2019-05-23T09:00:20.459Z,19.59
2019-05-23T09:01:17.510Z,19.56
2019-05-23T09:02:14.532Z,19.53
2019-05-23T09:03:11.603Z,19.71
2019-05-23T09:04:08.504Z,19.69
2019-05-23T09:05:06.590Z,19.60
2019-05-23T09:06:02.617Z,19.77
2019-05-23T09:06:59.655Z,19.78
2019-05-23T09:07:56.584Z,20.00
2019-05-23T09:08:53.548Z,20.28
2019-05-23T09:09:50.716Z,20.40
2019-05-23T09:10:47.714Z,20.47
2019-05-23T09:11:44.633Z,20.51
2019-05-23T09:12:41.681Z,20.57
2019-05-23T09:13:38.769Z,20.62
2019-05-23T09:14:35.746Z,20.44
2019-05-23T09:15:32.622Z,20.31
2019-05-23T09:16:33.118Z,20.32
2019-05-23T09:17:26.761Z,20.35
2019-05-23T09:18:23.792Z,20.50
2019-05-23T09:19:20.704Z,20.43
2019-05-23T09:20:17.850Z,20.40
2019-05-23T09:21:14.833Z,20.63
2019-05-23T09:22:11.889Z,20.81
2019-05-23T09:23:08.784Z,20.85
2019-05-23T09:24:05.766Z,20.92
2019-05-23T09:25:02.900Z,21.04
2019-05-23T09:25:59.854Z,21.11
2019-05-23T09:26:56.829Z,21.15
2019-05-23T09:27:53.822Z,21.10
2019-05-23T09:28:50.760Z,21.13
2019-05-23T09:29:47.840Z,21.06
2019-05-23T09:30:44.926Z,21.19
2019-05-23T09:31:41.906Z,21.34
2019-05-23T09:32:39.084Z,21.30
2019-05-23T09:33:35.844Z,21.30
2019-05-23T09:34:32.923Z,21.22
2019-05-23T09:35:29.931Z,21.14
2019-05-23T09:36:26.910Z,21.28
2019-05-23T09:37:24.144Z,21.39
2019-05-23T09:38:20.920Z,21.54
2019-05-23T09:39:18.009Z,21.75
2019-05-23T09:40:14.994Z,21.87
2019-05-23T09:41:12.083Z,21.98
2019-05-23T09:42:12.058Z,21.81
2019-05-23T09:43:06.017Z,21.79
2019-05-23T09:44:03.033Z,21.94
2019-05-23T09:45:00.117Z,22.04
2019-05-23T09:45:57.050Z,22.05
2019-05-23T09:46:53.964Z,21.96
2019-05-23T09:47:51.705Z,22.10
2019-05-23T09:48:48.057Z,22.34
2019-05-23T09:49:53.771Z,22.31
2019-05-23T09:50:42.093Z,22.35
2019-05-23T09:51:39.081Z,22.68
2019-05-23T09:52:36.117Z,23.14
2019-05-23T09:53:33.158Z,23.29
2019-05-23T09:54:30.127Z,22.95
2019-05-23T09:55:27.133Z,22.84
2019-05-23T09:56:24.211Z,22.79
2019-05-23T09:57:21.177Z,22.69
2019-05-23T09:58:18.101Z,22.72
2019-05-23T09:59:15.141Z,22.59
2019-05-23T10:00:12.192Z,22.40
2019-05-23T10:01:09.343Z,22.55
2019-05-23T10:02:06.156Z,22.45
2019-05-23T10:03:03.225Z,22.47
2019-05-23T10:04:00.322Z,22.79
2019-05-23T10:04:57.171Z,23.06
2019-05-23T10:05:54.515Z,23.20
2019-05-23T10:06:51.367Z,23.32
2019-05-23T10:07:48.315Z,23.45
2019-05-23T10:08:45.213Z,23.69
2019-05-23T10:09:42.330Z,23.55
2019-05-23T10:10:39.368Z,23.44
2019-05-23T10:11:36.425Z,23.43
2019-05-23T10:12:33.261Z,23.45
2019-05-23T10:13:39.146Z,23.25
2019-05-23T10:14:27.414Z,22.80
2019-05-23T10:15:24.408Z,22.54
2019-05-23T10:16:21.387Z,22.60
2019-05-23T10:17:18.381Z,22.62
2019-05-23T10:18:15.415Z,22.71
2019-05-23T10:19:12.453Z,22.90
2019-05-23T10:20:09.388Z,23.10
2019-05-23T10:21:06.386Z,23.12
2019-05-23T10:22:03.441Z,23.26
2019-05-23T10:23:00.467Z,23.15
2019-05-23T10:23:57.517Z,22.79
2019-05-23T10:24:54.474Z,22.54
2019-05-23T10:25:51.777Z,22.38
2019-05-23T10:26:48.426Z,22.64
2019-05-23T10:27:45.440Z,22.96
2019-05-23T10:28:42.512Z,22.93
2019-05-23T10:29:39.592Z,22.90
2019-05-23T10:30:36.641Z,22.93
2019-05-23T10:31:33.600Z,23.02
2019-05-23T10:32:30.573Z,23.20
2019-05-23T10:33:27.664Z,23.43
2019-05-23T10:34:24.551Z,23.10
2019-05-23T10:35:21.859Z,22.51
2019-05-23T10:36:18.878Z,22.21
2019-05-23T10:37:15.709Z,22.20
2019-05-23T10:38:12.608Z,22.11
2019-05-23T10:39:09.731Z,22.19
2019-05-23T10:40:06.652Z,22.44
2019-05-23T10:41:03.755Z,22.73
2019-05-23T10:42:00.689Z,22.96
2019-05-23T10:42:57.741Z,22.94
2019-05-23T10:43:54.781Z,22.82
2019-05-23T10:44:51.745Z,22.95
2019-05-23T10:45:48.679Z,23.07
2019-05-23T10:46:45.684Z,23.03
2019-05-23T10:47:42.759Z,22.87
2019-05-23T10:48:39.859Z,22.56
2019-05-23T10:49:36.733Z,21.96
2019-05-23T10:50:44.297Z,21.46
2019-05-23T10:51:30.798Z,21.05
2019-05-23T10:52:27.787Z,20.86
2019-05-23T10:53:24.778Z,20.72
2019-05-23T10:54:21.827Z,20.62
2019-05-23T10:55:18.899Z,20.44
2019-05-23T10:56:20.394Z,20.29
2019-05-23T10:57:12.813Z,20.19
2019-05-23T10:58:09.854Z,20.12
2019-05-23T10:59:06.932Z,20.00
2019-05-23T11:00:03.830Z,19.90
2019-05-23T11:04:48.703Z,20.11
2019-05-23T11:05:45.789Z,20.06
2019-05-23T11:06:42.790Z,20.01
2019-05-23T11:07:39.855Z,19.90
2019-05-23T11:08:36.766Z,19.88
2019-05-23T11:09:38.093Z,19.88
2019-05-23T11:10:30.885Z,19.88
2019-05-23T11:11:28.028Z,19.87
2019-05-23T11:12:24.861Z,19.92
2019-05-23T11:13:21.859Z,19.97
2019-05-23T11:14:18.884Z,19.97
2019-05-23T11:15:15.789Z,20.00
2019-05-23T11:16:12.920Z,20.05
2019-05-23T11:17:09.853Z,20.12
2019-05-23T11:18:06.977Z,20.15
2019-05-23T11:19:03.849Z,20.23
2019-05-23T11:20:00.901Z,20.26
2019-05-23T11:20:57.915Z,20.28
2019-05-23T11:21:54.984Z,20.30
2019-05-23T11:22:51.960Z,20.36
2019-05-23T11:23:48.951Z,20.48
2019-05-23T11:24:45.946Z,20.48
2019-05-23T11:25:42.887Z,20.47
2019-05-23T11:26:39.926Z,20.55
2019-05-23T11:27:36.977Z,20.65
2019-05-23T11:28:34.080Z,20.64
2019-05-23T11:29:30.967Z,20.47
2019-05-23T11:30:28.011Z,20.48
2019-05-23T11:31:25.022Z,20.61
2019-05-23T11:32:22.082Z,20.88
2019-05-23T11:33:18.987Z,21.18
2019-05-23T11:34:16.013Z,21.18
2019-05-23T11:35:13.091Z,21.10
2019-05-23T11:36:09.990Z,21.12
2019-05-23T11:37:07.043Z,21.12
2019-05-23T11:38:04.198Z,21.22
2019-05-23T11:39:01.143Z,21.38
2019-05-23T11:39:58.079Z,21.42
2019-05-23T11:40:55.111Z,21.52
2019-05-23T11:41:52.244Z,21.48
2019-05-23T11:42:52.474Z,21.46
2019-05-23T11:43:46.178Z,21.34
2019-05-23T11:44:43.121Z,21.13
2019-05-23T11:45:45.883Z,21.14
2019-05-23T11:46:37.232Z,21.22
2019-05-23T11:47:34.191Z,21.54
2019-05-23T11:48:31.307Z,21.84
2019-05-23T11:49:28.261Z,21.95
2019-05-23T11:50:25.184Z,22.00
2019-05-23T11:51:25.281Z,21.82
2019-05-23T11:52:19.223Z,22.03
2019-05-23T11:53:16.167Z,22.00
2019-05-23T11:54:13.259Z,21.93
2019-05-23T11:55:10.265Z,21.81
2019-05-23T11:56:07.397Z,21.75
2019-05-23T11:57:04.215Z,21.64
2019-05-23T11:58:01.229Z,21.65
2019-05-23T11:59:01.663Z,21.54
2019-05-23T11:59:55.355Z,21.45
2019-05-23T12:00:52.255Z,21.37
2019-05-23T12:01:49.282Z,21.37
2019-05-23T12:02:46.345Z,21.40
2019-05-23T12:03:43.447Z,21.59
2019-05-23T12:04:40.342Z,21.95
2019-05-23T12:05:37.334Z,22.18
2019-05-23T12:06:53.173Z,22.70
2019-05-23T12:07:31.387Z,23.11
2019-05-23T12:08:28.386Z,23.28
2019-05-23T12:09:25.383Z,23.54
2019-05-23T12:10:22.885Z,23.95
2019-05-23T12:11:19.404Z,24.09
2019-05-23T12:12:16.405Z,23.95
2019-05-23T12:13:13.473Z,23.84
2019-05-23T12:14:10.551Z,23.69
2019-05-23T12:15:07.437Z,23.57
2019-05-23T12:16:04.477Z,23.59
2019-05-23T12:17:01.528Z,23.81
2019-05-23T12:17:58.422Z,23.77
2019-05-23T12:18:55.494Z,23.68
2019-05-23T12:19:52.590Z,23.28
2019-05-23T12:20:49.563Z,22.86
2019-05-23T12:21:46.464Z,22.52
2019-05-23T12:22:43.677Z,22.29
2019-05-23T12:23:40.567Z,21.97
2019-05-23T12:24:37.667Z,21.81
2019-05-23T12:25:34.551Z,21.81
2019-05-23T12:26:31.579Z,21.88
2019-05-23T12:27:28.624Z,22.12
2019-05-23T12:28:25.598Z,22.26
2019-05-23T12:29:22.588Z,22.29